This is the latest recevied weather packets stored in our database for station/object MB7UCW-13. If no packets are shown the sender has not sent any weather packets the latest 10 day(s).
| Time | Temp. | Humidity | Pressure | Rain* | Wind** | Luminosity | Snow |
|---|---|---|---|---|---|---|---|
| 1777952702 | 5° C | 93% | 1014.9 hPa | 0 mm | - | 0 W/m² | - |
| 1777950002 | 5.56° C | 93% | 1014.9 hPa | 0 mm | - | 0 W/m² | - |
| 1777945523 | 6.67° C | 92% | 1015.4 hPa | 0 mm | - | 0 W/m² | - |
| 1777939203 | 7.78° C | 92% | 1016.1 hPa | 0 mm | - | 0 W/m² | - |
| 1777933802 | 8.33° C | 90% | 1016.3 hPa | 0 mm | - | 0 W/m² | - |
| 1777926623 | 11.11° C | 85% | 1016.3 hPa | 0 mm | - | 0 W/m² | - |
| 1777921202 | 13.33° C | 82% | 1015.6 hPa | 0 mm | - | 25 W/m² | - |
| 1777911302 | 13.89° C | 80% | 1015.6 hPa | 0 mm | - | 109 W/m² | - |
| 1777906802 | 13.33° C | 81% | 1015.8 hPa | 0 mm | - | 186 W/m² | - |
| 1777905902 | 13.33° C | 81% | 1015.9 hPa | 0 mm | - | 153 W/m² | - |
| 1777902303 | 13.33° C | 81% | 1016 hPa | 0 mm | - | 237 W/m² | - |
| 1777901402 | 13.33° C | 81% | 1016.1 hPa | 0 mm | - | 234 W/m² | - |
| 1777898703 | 12.78° C | 82% | 1016.1 hPa | 0 mm | - | 172 W/m² | - |
| 1777895102 | 12.22° C | 83% | 1016.2 hPa | 0 mm | - | 132 W/m² | - |
| 1777894203 | 12.22° C | 84% | 1016.1 hPa | 0 mm | - | 167 W/m² | - |
| 1777890603 | 11.67° C | 85% | 1016.1 hPa | 0 mm | - | 193 W/m² | - |
| 1777887003 | 11.67° C | 86% | 1016 hPa | 0 mm | - | 141 W/m² | - |
| 1777882503 | 11.11° C | 88% | 1015.5 hPa | 0 mm | - | 81 W/m² | - |
| 1777879803 | 11.11° C | 88% | 1015.2 hPa | 0 mm | - | 58 W/m² | - |
| 1777877103 | 10.56° C | 88% | 1014.8 hPa | 0 mm | - | 42 W/m² | - |
| 1777876203 | 10.56° C | 89% | 1014.7 hPa | 0 mm | - | 32 W/m² | - |
| 1777875303 | 10.56° C | 89% | 1014.7 hPa | 0 mm | - | 25 W/m² | - |
| 1777872603 | 10.56° C | 89% | 1014.3 hPa | 0 mm | - | 11 W/m² | - |
| 1777870803 | 10.56° C | 89% | 1014 hPa | 0 mm | - | 0 W/m² | - |
| 1777864503 | 11.11° C | 90% | 1013.7 hPa | 0 mm | - | 0 W/m² | - |
* Rain latest hour (hover to see other rain measurements)
** Current wind speed in m/s (hover to see current wind gust speed)